Airfield :
LOGIN :

Register | Disclaimer

   EN    FR    IT 

 










Legend :    VFR   Marginal VFR   IFR   Intensive IFR   Very Intensive IFR
Visi :
Ceiling :
>= 8 km
>= 3000ft
5 to 8 km
1000 to 3000 ft
1500m to 5 km
500 to 1000 ft
800 to 1500m
200 to 500 ft
< 800m
< 200 ft
Symbols :   Thunderstorms  Fog  Heavy snow  Heavy precipitations  Wind > 20 kt
SIGMETs :     Misc.  Thunderstorms  Icing  Turbulence  Mountain Waves  Volcanic Ashes







- Airport Elevation : 0 ft


ETEB - Ansbach Army Heliport

CURRENT METAR :
  • 181517Z AUTO 25023G31KT 9999 BKN019 BKN065 06/04 A2951 RMK AO2 RAE01DZB01E02 CIG 018V065 BKN019 V SCT SLP022 $

EXPIRED METARs :
  • 181502Z AUTO 25020G35KT 9999 SCT016 BKN022 BKN065 06/04 A2951 RMK AO2 RAE01DZB01E02 CIG 016V022 SLP022 $
  • 181456Z AUTO 25024G35KT 9999 -RA BKN016 BKN021 OVC065 06/04 A2950 RMK AO2 PK WND 25036/36 RAE08DZB08E09RAB11 SLP019 P0002 60002 T00620042 53013 $
  • 181411Z AUTO 24021G29KT 9999 -RA BKN013 OVC020 06/04 A2948 RMK AO2 RAE08DZB08E09RAB11 SLP010 $
  • 181356Z AUTO 24021G30KT 9999 -RA SCT015 BKN021 BKN025 BKN030 OVC041 06/04 A2947 RMK AO2 PK WND 26047/23 RAB45 CIG 021V037 BKN021 V SCT SLP006 P0000 T00630043 $
  • 181345Z AUTO 24023G36KT 9999 -RA FEW020 SCT025 BKN035 BKN047 07/04 A2946 RMK AO2 RAB45 SLP003 $
  • 181325Z AUTO 25036G47KT 9999 SQ BKN032 07/03 A2945 RMK AO2 SLP000 $
  • 181256Z AUTO 25030G39KT 9999 SCT021 BKN032 06/03 A2944 RMK AO2 PK WND 24039/53 RAE12RAB30E42DZB42E43 SLP996 P0000 T00630031 $
  • 181243Z AUTO 24023G32KT 9999 BKN019 OVC025 06/03 A2944 RMK AO2 RAE12RAB30E42DZB42E43 BKN V OVC SLP998 $

TAF TAF ETEB
Valid from the 18 at 14:00 until the 19 at 20:00 UTC


181406Z 1814/1920 22020G30KT 6000 -SHRA BKN015 610409 530006 QNH2940INS
TEMPO 1814/1816 22035G50KT 3200 -TSRA BKN015CB 560006
BECMG 1815/1816 27025G35KT 8000 -SHRA BKN030 610409 530004 QNH2952INS
BECMG 1819/1820 26015G25KT 9000 -SHRA BKN030 510004 QNH2955INS
BECMG 1822/1823 25010G20KT 9000 -SHRA BKN010 610208 QNH2961INS
BECMG 1909/1910 25015G25KT 9999 NSW BKN015 610409 510004 QNH2980INS
BECMG 1913/1914 26010G20KT 9999 BKN020 610409 QNH2983INS TX07/1814Z TN00/1906Z
No reported NOTAMs for that airfield.
1 SIGMET reported for the Langen FIR (EDGG) :
 
Severe turbulence
EDGG SIGMET 5 VALID 181500/181700 EDZF
EDGG LANGEN FIR SEV TURB FCST NE OF LINE N4920 E01045 - N5215 E00740 SFC/FL060 MOV E 30KT NC=



MET'MAP, your aeronautical weather chart ! - Copyright ORBIFLY December 2007 - Disclaimer

ORBIFLY MET'MAP TEAM :

Programming & Development : Alexandra Zaïnal
Concept & Development : Baudouin d'Aumeries
Co-Development & Prog : Marc-Olivier Méhu
Technical & hardware support : Manuel Goepfert

Contact : metmap@orbifly.com




SOURCES & CREDITS :

   NOAA